sensor_id;sensor_type;location;lat;lon;timestamp;temperature;humidity
43049;DHT22;28673;44.412;11.918;2023-07-09T00:01:53;23.90;97.90
43049;DHT22;28673;44.412;11.918;2023-07-09T00:04:19;23.80;98.00
43049;DHT22;28673;44.412;11.918;2023-07-09T00:06:45;23.80;98.00
43049;DHT22;28673;44.412;11.918;2023-07-09T00:09:17;23.80;98.10
43049;DHT22;28673;44.412;11.918;2023-07-09T00:11:44;23.80;98.20
43049;DHT22;28673;44.412;11.918;2023-07-09T00:14:12;23.80;98.30
43049;DHT22;28673;44.412;11.918;2023-07-09T00:16:39;23.70;98.40
43049;DHT22;28673;44.412;11.918;2023-07-09T00:19:11;23.70;98.40
43049;DHT22;28673;44.412;11.918;2023-07-09T00:21:39;23.70;98.60
43049;DHT22;28673;44.412;11.918;2023-07-09T00:24:07;23.70;98.50
43049;DHT22;28673;44.412;11.918;2023-07-09T00:26:36;23.70;98.60
43049;DHT22;28673;44.412;11.918;2023-07-09T00:29:04;23.60;98.70
43049;DHT22;28673;44.412;11.918;2023-07-09T00:31:30;23.60;98.70
43049;DHT22;28673;44.412;11.918;2023-07-09T00:33:56;23.60;98.80
43049;DHT22;28673;44.412;11.918;2023-07-09T00:36:29;23.60;98.90
43049;DHT22;28673;44.412;11.918;2023-07-09T00:38:59;23.60;99.00
43049;DHT22;28673;44.412;11.918;2023-07-09T00:41:35;23.60;99.00
43049;DHT22;28673;44.412;11.918;2023-07-09T00:44:27;23.50;99.10
43049;DHT22;28673;44.412;11.918;2023-07-09T00:49:32;23.50;99.10
43049;DHT22;28673;44.412;11.918;2023-07-09T00:52:07;23.40;99.10
43049;DHT22;28673;44.412;11.918;2023-07-09T00:54:38;23.50;99.20
43049;DHT22;28673;44.412;11.918;2023-07-09T00:57:20;23.40;99.30
43049;DHT22;28673;44.412;11.918;2023-07-09T00:59:51;23.40;99.50
43049;DHT22;28673;44.412;11.918;2023-07-09T01:02:19;23.40;99.50
43049;DHT22;28673;44.412;11.918;2023-07-09T01:04:50;23.40;99.50
43049;DHT22;28673;44.412;11.918;2023-07-09T01:07:17;23.30;99.50
43049;DHT22;28673;44.412;11.918;2023-07-09T01:09:47;23.30;99.60
43049;DHT22;28673;44.412;11.918;2023-07-09T01:12:16;23.30;99.70
43049;DHT22;28673;44.412;11.918;2023-07-09T01:14:45;23.20;99.80
43049;DHT22;28673;44.412;11.918;2023-07-09T01:17:14;23.20;99.80
43049;DHT22;28673;44.412;11.918;2023-07-09T01:19:42;23.20;99.90
43049;DHT22;28673;44.412;11.918;2023-07-09T01:22:15;23.20;99.90
43049;DHT22;28673;44.412;11.918;2023-07-09T01:25:02;23.20;99.90
43049;DHT22;28673;44.412;11.918;2023-07-09T01:27:34;23.20;99.90
43049;DHT22;28673;44.412;11.918;2023-07-09T01:30:05;23.10;99.90
43049;DHT22;28673;44.412;11.918;2023-07-09T01:32:32;23.10;99.90
43049;DHT22;28673;44.412;11.918;2023-07-09T01:35:01;23.10;99.90
43049;DHT22;28673;44.412;11.918;2023-07-09T01:37:31;23.00;99.90
43049;DHT22;28673;44.412;11.918;2023-07-09T01:39:57;23.00;99.90
43049;DHT22;28673;44.412;11.918;2023-07-09T01:42:25;23.00;99.90
43049;DHT22;28673;44.412;11.918;2023-07-09T01:44:52;23.00;99.90
43049;DHT22;28673;44.412;11.918;2023-07-09T01:47:19;22.90;99.90
43049;DHT22;28673;44.412;11.918;2023-07-09T01:49:45;22.90;99.90
43049;DHT22;28673;44.412;11.918;2023-07-09T01:52:15;22.90;99.90
43049;DHT22;28673;44.412;11.918;2023-07-09T01:54:42;22.90;99.90
43049;DHT22;28673;44.412;11.918;2023-07-09T01:57:23;22.90;99.90
43049;DHT22;28673;44.412;11.918;2023-07-09T01:59:50;22.80;99.90
43049;DHT22;28673;44.412;11.918;2023-07-09T02:02:17;22.80;99.90
43049;DHT22;28673;44.412;11.918;2023-07-09T02:04:54;22.80;99.90
43049;DHT22;28673;44.412;11.918;2023-07-09T02:07:22;22.80;99.90
43049;DHT22;28673;44.412;11.918;2023-07-09T02:09:49;22.70;99.90
43049;DHT22;28673;44.412;11.918;2023-07-09T02:12:19;22.70;99.90
43049;DHT22;28673;44.412;11.918;2023-07-09T02:14:45;22.60;99.90
43049;DHT22;28673;44.412;11.918;2023-07-09T02:17:13;22.60;99.90
43049;DHT22;28673;44.412;11.918;2023-07-09T02:19:39;22.60;99.90
43049;DHT22;28673;44.412;11.918;2023-07-09T02:22:06;22.60;99.90
43049;DHT22;28673;44.412;11.918;2023-07-09T02:24:32;22.60;99.90
43049;DHT22;28673;44.412;11.918;2023-07-09T02:27:00;22.50;99.90
43049;DHT22;28673;44.412;11.918;2023-07-09T02:29:28;22.50;99.90
43049;DHT22;28673;44.412;11.918;2023-07-09T02:31:56;22.60;99.90
43049;DHT22;28673;44.412;11.918;2023-07-09T02:34:24;22.50;99.90
43049;DHT22;28673;44.412;11.918;2023-07-09T02:36:55;22.50;99.90
43049;DHT22;28673;44.412;11.918;2023-07-09T02:39:22;22.50;99.90
43049;DHT22;28673;44.412;11.918;2023-07-09T02:41:49;22.50;99.90
43049;DHT22;28673;44.412;11.918;2023-07-09T02:44:16;22.50;99.90
43049;DHT22;28673;44.412;11.918;2023-07-09T02:46:42;22.40;99.90
43049;DHT22;28673;44.412;11.918;2023-07-09T02:49:13;22.50;99.90
43049;DHT22;28673;44.412;11.918;2023-07-09T02:51:39;22.40;99.90
43049;DHT22;28673;44.412;11.918;2023-07-09T02:54:06;22.40;99.90
43049;DHT22;28673;44.412;11.918;2023-07-09T02:56:32;22.40;99.90
43049;DHT22;28673;44.412;11.918;2023-07-09T02:58:58;22.30;99.90
43049;DHT22;28673;44.412;11.918;2023-07-09T03:01:25;22.40;99.90
43049;DHT22;28673;44.412;11.918;2023-07-09T03:03:54;22.30;99.90
43049;DHT22;28673;44.412;11.918;2023-07-09T03:06:27;22.30;99.90
43049;DHT22;28673;44.412;11.918;2023-07-09T03:08:57;22.30;99.90
43049;DHT22;28673;44.412;11.918;2023-07-09T03:11:28;22.30;99.90
43049;DHT22;28673;44.412;11.918;2023-07-09T03:13:59;22.20;99.90
43049;DHT22;28673;44.412;11.918;2023-07-09T03:16:29;22.20;99.90
43049;DHT22;28673;44.412;11.918;2023-07-09T03:18:55;22.20;99.90
43049;DHT22;28673;44.412;11.918;2023-07-09T03:21:25;22.20;99.90
43049;DHT22;28673;44.412;11.918;2023-07-09T03:23:52;22.20;99.90
43049;DHT22;28673;44.412;11.918;2023-07-09T03:26:18;22.10;99.90
43049;DHT22;28673;44.412;11.918;2023-07-09T03:28:44;22.10;99.90
43049;DHT22;28673;44.412;11.918;2023-07-09T03:31:10;22.10;99.90
43049;DHT22;28673;44.412;11.918;2023-07-09T03:33:36;22.10;99.90
43049;DHT22;28673;44.412;11.918;2023-07-09T03:36:02;22.10;99.90
43049;DHT22;28673;44.412;11.918;2023-07-09T03:38:30;22.00;99.90
43049;DHT22;28673;44.412;11.918;2023-07-09T03:40:56;22.00;99.90
43049;DHT22;28673;44.412;11.918;2023-07-09T03:43:23;22.00;99.90
43049;DHT22;28673;44.412;11.918;2023-07-09T03:45:51;22.00;99.90
43049;DHT22;28673;44.412;11.918;2023-07-09T03:48:19;22.00;99.90
43049;DHT22;28673;44.412;11.918;2023-07-09T03:50:48;22.00;99.90
43049;DHT22;28673;44.412;11.918;2023-07-09T03:53:15;22.00;99.90
43049;DHT22;28673;44.412;11.918;2023-07-09T03:55:41;22.00;99.90
43049;DHT22;28673;44.412;11.918;2023-07-09T03:58:07;22.00;99.90
43049;DHT22;28673;44.412;11.918;2023-07-09T04:00:33;22.00;99.90
43049;DHT22;28673;44.412;11.918;2023-07-09T04:03:00;22.00;99.90
43049;DHT22;28673;44.412;11.918;2023-07-09T04:05:27;22.00;99.90
43049;DHT22;28673;44.412;11.918;2023-07-09T04:07:53;22.00;99.90
43049;DHT22;28673;44.412;11.918;2023-07-09T04:10:20;22.00;99.90
43049;DHT22;28673;44.412;11.918;2023-07-09T04:12:48;22.00;99.90
43049;DHT22;28673;44.412;11.918;2023-07-09T04:15:14;22.00;99.90
43049;DHT22;28673;44.412;11.918;2023-07-09T04:17:40;22.00;99.90
43049;DHT22;28673;44.412;11.918;2023-07-09T04:20:08;22.00;99.90
43049;DHT22;28673;44.412;11.918;2023-07-09T04:22:35;22.00;99.90
43049;DHT22;28673;44.412;11.918;2023-07-09T04:25:03;22.00;99.90
43049;DHT22;28673;44.412;11.918;2023-07-09T04:27:30;22.00;99.90
43049;DHT22;28673;44.412;11.918;2023-07-09T04:29:56;22.00;99.90
43049;DHT22;28673;44.412;11.918;2023-07-09T04:32:22;22.00;99.90
43049;DHT22;28673;44.412;11.918;2023-07-09T04:34:49;22.00;99.90
43049;DHT22;28673;44.412;11.918;2023-07-09T04:37:16;22.00;99.90
43049;DHT22;28673;44.412;11.918;2023-07-09T04:39:42;22.00;99.90
43049;DHT22;28673;44.412;11.918;2023-07-09T04:42:12;22.00;99.90
43049;DHT22;28673;44.412;11.918;2023-07-09T04:44:39;22.10;99.90
43049;DHT22;28673;44.412;11.918;2023-07-09T04:47:16;22.10;99.90
43049;DHT22;28673;44.412;11.918;2023-07-09T04:49:57;22.10;99.90
43049;DHT22;28673;44.412;11.918;2023-07-09T04:52:23;22.10;99.90
43049;DHT22;28673;44.412;11.918;2023-07-09T04:54:49;22.10;99.90
43049;DHT22;28673;44.412;11.918;2023-07-09T04:57:16;22.10;99.90
43049;DHT22;28673;44.412;11.918;2023-07-09T04:59:45;22.20;99.90
43049;DHT22;28673;44.412;11.918;2023-07-09T05:02:15;22.20;99.90
43049;DHT22;28673;44.412;11.918;2023-07-09T05:04:44;22.20;99.90
43049;DHT22;28673;44.412;11.918;2023-07-09T05:07:10;22.20;99.90
43049;DHT22;28673;44.412;11.918;2023-07-09T05:09:56;22.30;99.90
43049;DHT22;28673;44.412;11.918;2023-07-09T05:12:26;22.30;99.90
43049;DHT22;28673;44.412;11.918;2023-07-09T05:15:26;22.40;99.90
43049;DHT22;28673;44.412;11.918;2023-07-09T05:17:56;22.40;99.90
43049;DHT22;28673;44.412;11.918;2023-07-09T05:20:33;22.60;99.90
43049;DHT22;28673;44.412;11.918;2023-07-09T05:23:31;22.60;99.90
43049;DHT22;28673;44.412;11.918;2023-07-09T05:26:13;22.70;99.90
43049;DHT22;28673;44.412;11.918;2023-07-09T05:29:01;22.80;99.90
43049;DHT22;28673;44.412;11.918;2023-07-09T05:31:48;22.90;99.90
43049;DHT22;28673;44.412;11.918;2023-07-09T05:34:21;23.10;99.90
43049;DHT22;28673;44.412;11.918;2023-07-09T05:36:53;23.20;99.90
43049;DHT22;28673;44.412;11.918;2023-07-09T05:39:34;23.30;99.90
43049;DHT22;28673;44.412;11.918;2023-07-09T05:45:25;23.50;99.90
43049;DHT22;28673;44.412;11.918;2023-07-09T05:47:59;23.70;99.90
43049;DHT22;28673;44.412;11.918;2023-07-09T05:50:36;23.80;99.90
43049;DHT22;28673;44.412;11.918;2023-07-09T05:53:02;23.90;99.90
43049;DHT22;28673;44.412;11.918;2023-07-09T05:55:29;24.00;99.90
43049;DHT22;28673;44.412;11.918;2023-07-09T05:57:56;24.20;99.90
43049;DHT22;28673;44.412;11.918;2023-07-09T06:00:22;24.30;99.90
43049;DHT22;28673;44.412;11.918;2023-07-09T06:02:48;24.40;99.90
43049;DHT22;28673;44.412;11.918;2023-07-09T06:05:17;24.60;99.90
43049;DHT22;28673;44.412;11.918;2023-07-09T06:07:43;24.70;99.90
43049;DHT22;28673;44.412;11.918;2023-07-09T06:10:09;24.80;99.90
43049;DHT22;28673;44.412;11.918;2023-07-09T06:12:36;25.00;99.90
43049;DHT22;28673;44.412;11.918;2023-07-09T06:15:02;25.10;99.90
43049;DHT22;28673;44.412;11.918;2023-07-09T06:17:28;25.30;99.90
43049;DHT22;28673;44.412;11.918;2023-07-09T06:19:55;25.50;99.90
43049;DHT22;28673;44.412;11.918;2023-07-09T06:22:21;25.60;99.90
43049;DHT22;28673;44.412;11.918;2023-07-09T06:24:53;25.80;99.90
43049;DHT22;28673;44.412;11.918;2023-07-09T06:27:23;26.00;99.90
43049;DHT22;28673;44.412;11.918;2023-07-09T06:29:49;26.20;99.90
43049;DHT22;28673;44.412;11.918;2023-07-09T06:32:15;26.30;99.60
43049;DHT22;28673;44.412;11.918;2023-07-09T06:34:41;26.50;99.40
43049;DHT22;28673;44.412;11.918;2023-07-09T06:37:07;26.70;99.10
43049;DHT22;28673;44.412;11.918;2023-07-09T06:39:33;26.80;98.90
43049;DHT22;28673;44.412;11.918;2023-07-09T06:41:59;27.10;98.60
43049;DHT22;28673;44.412;11.918;2023-07-09T06:44:47;27.30;98.30
43049;DHT22;28673;44.412;11.918;2023-07-09T06:47:13;27.40;98.10
43049;DHT22;28673;44.412;11.918;2023-07-09T06:49:39;27.60;97.30
43049;DHT22;28673;44.412;11.918;2023-07-09T06:52:05;27.70;97.10
43049;DHT22;28673;44.412;11.918;2023-07-09T06:54:31;27.90;96.90
43049;DHT22;28673;44.412;11.918;2023-07-09T06:56:57;28.10;96.70
43049;DHT22;28673;44.412;11.918;2023-07-09T06:59:23;28.30;96.50
43049;DHT22;28673;44.412;11.918;2023-07-09T07:01:48;28.50;96.10
43049;DHT22;28673;44.412;11.918;2023-07-09T07:04:14;28.60;95.70
43049;DHT22;28673;44.412;11.918;2023-07-09T07:06:41;28.80;95.60
43049;DHT22;28673;44.412;11.918;2023-07-09T07:09:07;29.00;95.20
43049;DHT22;28673;44.412;11.918;2023-07-09T07:11:34;29.20;94.90
43049;DHT22;28673;44.412;11.918;2023-07-09T07:14:00;29.30;94.50
43049;DHT22;28673;44.412;11.918;2023-07-09T07:16:26;29.50;94.30
43049;DHT22;28673;44.412;11.918;2023-07-09T07:18:51;29.60;94.20
43049;DHT22;28673;44.412;11.918;2023-07-09T07:21:17;29.80;94.00
43049;DHT22;28673;44.412;11.918;2023-07-09T07:23:43;29.90;93.80
43049;DHT22;28673;44.412;11.918;2023-07-09T07:26:09;30.10;93.60
43049;DHT22;28673;44.412;11.918;2023-07-09T07:28:35;30.30;93.30
43049;DHT22;28673;44.412;11.918;2023-07-09T07:31:04;30.40;93.00
43049;DHT22;28673;44.412;11.918;2023-07-09T07:33:30;30.60;92.80
43049;DHT22;28673;44.412;11.918;2023-07-09T07:35:57;30.80;92.70
43049;DHT22;28673;44.412;11.918;2023-07-09T07:38:23;31.00;92.50
43049;DHT22;28673;44.412;11.918;2023-07-09T07:40:49;31.20;92.30
43049;DHT22;28673;44.412;11.918;2023-07-09T07:43:14;31.30;92.00
43049;DHT22;28673;44.412;11.918;2023-07-09T07:45:44;31.50;91.60
43049;DHT22;28673;44.412;11.918;2023-07-09T07:48:10;31.60;91.40
43049;DHT22;28673;44.412;11.918;2023-07-09T07:50:36;31.80;91.20
43049;DHT22;28673;44.412;11.918;2023-07-09T07:53:03;31.90;90.90
43049;DHT22;28673;44.412;11.918;2023-07-09T07:55:29;32.00;90.60
43049;DHT22;28673;44.412;11.918;2023-07-09T07:57:55;32.10;90.50
43049;DHT22;28673;44.412;11.918;2023-07-09T08:00:22;32.30;90.40
43049;DHT22;28673;44.412;11.918;2023-07-09T08:02:48;32.50;90.00
43049;DHT22;28673;44.412;11.918;2023-07-09T08:05:14;32.70;89.50
43049;DHT22;28673;44.412;11.918;2023-07-09T08:07:40;32.80;89.10
43049;DHT22;28673;44.412;11.918;2023-07-09T08:10:06;32.90;88.70
43049;DHT22;28673;44.412;11.918;2023-07-09T08:12:32;33.10;86.80
43049;DHT22;28673;44.412;11.918;2023-07-09T08:14:58;33.20;88.80
43049;DHT22;28673;44.412;11.918;2023-07-09T08:17:24;33.40;88.10
43049;DHT22;28673;44.412;11.918;2023-07-09T08:19:52;33.70;87.70
43049;DHT22;28673;44.412;11.918;2023-07-09T08:22:19;33.90;86.80
43049;DHT22;28673;44.412;11.918;2023-07-09T08:24:49;33.90;86.00
43049;DHT22;28673;44.412;11.918;2023-07-09T08:27:15;34.00;86.20
43049;DHT22;28673;44.412;11.918;2023-07-09T08:29:41;34.10;85.70
43049;DHT22;28673;44.412;11.918;2023-07-09T08:32:09;34.30;85.70
43049;DHT22;28673;44.412;11.918;2023-07-09T08:34:35;34.40;84.70
43049;DHT22;28673;44.412;11.918;2023-07-09T08:37:02;34.60;84.20
43049;DHT22;28673;44.412;11.918;2023-07-09T08:39:28;34.80;84.10
43049;DHT22;28673;44.412;11.918;2023-07-09T08:42:16;34.90;83.50
43049;DHT22;28673;44.412;11.918;2023-07-09T08:45:03;35.10;82.10
43049;DHT22;28673;44.412;11.918;2023-07-09T08:50:27;35.30;80.10
43049;DHT22;28673;44.412;11.918;2023-07-09T08:52:56;35.30;80.70
43049;DHT22;28673;44.412;11.918;2023-07-09T08:55:27;35.40;80.60
43049;DHT22;28673;44.412;11.918;2023-07-09T08:58:14;35.60;81.00
43049;DHT22;28673;44.412;11.918;2023-07-09T09:00:55;35.80;80.00
43049;DHT22;28673;44.412;11.918;2023-07-09T09:05:57;36.10;79.50
43049;DHT22;28673;44.412;11.918;2023-07-09T09:11:39;36.60;74.60
43049;DHT22;28673;44.412;11.918;2023-07-09T09:16:44;37.10;75.60
43049;DHT22;28673;44.412;11.918;2023-07-09T09:22:04;37.70;74.00
43049;DHT22;28673;44.412;11.918;2023-07-09T09:24:40;38.00;73.60
43049;DHT22;28673;44.412;11.918;2023-07-09T09:27:09;38.10;73.00
43049;DHT22;28673;44.412;11.918;2023-07-09T09:29:35;38.20;72.80
43049;DHT22;28673;44.412;11.918;2023-07-09T09:32:36;38.10;72.50
43049;DHT22;28673;44.412;11.918;2023-07-09T09:34:58;38.10;72.00
43049;DHT22;28673;44.412;11.918;2023-07-09T09:37:30;38.10;72.90
43049;DHT22;28673;44.412;11.918;2023-07-09T09:39:58;38.10;72.60
43049;DHT22;28673;44.412;11.918;2023-07-09T09:42:25;38.10;72.20
43049;DHT22;28673;44.412;11.918;2023-07-09T09:44:54;38.10;72.00
43049;DHT22;28673;44.412;11.918;2023-07-09T09:47:20;38.30;71.40
43049;DHT22;28673;44.412;11.918;2023-07-09T09:49:46;38.50;71.70
43049;DHT22;28673;44.412;11.918;2023-07-09T09:52:17;38.60;70.10
43049;DHT22;28673;44.412;11.918;2023-07-09T09:54:56;38.50;71.20
43049;DHT22;28673;44.412;11.918;2023-07-09T09:57:27;38.60;70.10
43049;DHT22;28673;44.412;11.918;2023-07-09T09:59:56;38.80;70.90
43049;DHT22;28673;44.412;11.918;2023-07-09T10:02:24;38.90;69.80
43049;DHT22;28673;44.412;11.918;2023-07-09T10:04:51;39.00;70.00
43049;DHT22;28673;44.412;11.918;2023-07-09T10:07:38;39.20;69.40
43049;DHT22;28673;44.412;11.918;2023-07-09T10:10:14;39.30;68.10
43049;DHT22;28673;44.412;11.918;2023-07-09T10:15:34;39.50;67.60
43049;DHT22;28673;44.412;11.918;2023-07-09T10:18:31;39.80;68.50
43049;DHT22;28673;44.412;11.918;2023-07-09T10:21:10;40.00;67.60
43049;DHT22;28673;44.412;11.918;2023-07-09T10:23:44;40.40;66.00
43049;DHT22;28673;44.412;11.918;2023-07-09T10:26:23;40.50;65.50
43049;DHT22;28673;44.412;11.918;2023-07-09T10:34:34;40.70;64.70
43049;DHT22;28673;44.412;11.918;2023-07-09T10:39:55;41.00;66.10
43049;DHT22;28673;44.412;11.918;2023-07-09T10:42:27;41.20;64.90
43049;DHT22;28673;44.412;11.918;2023-07-09T10:45:01;41.30;65.10
43049;DHT22;28673;44.412;11.918;2023-07-09T10:47:32;41.40;64.60
43049;DHT22;28673;44.412;11.918;2023-07-09T10:50:02;41.40;64.20
43049;DHT22;28673;44.412;11.918;2023-07-09T10:52:36;41.40;64.40
43049;DHT22;28673;44.412;11.918;2023-07-09T10:55:07;41.30;64.30
43049;DHT22;28673;44.412;11.918;2023-07-09T11:00:51;41.30;63.40
43049;DHT22;28673;44.412;11.918;2023-07-09T11:03:19;41.30;63.30
43049;DHT22;28673;44.412;11.918;2023-07-09T11:05:46;41.30;63.40
43049;DHT22;28673;44.412;11.918;2023-07-09T11:08:28;41.40;63.20
43049;DHT22;28673;44.412;11.918;2023-07-09T11:10:59;41.40;61.80
43049;DHT22;28673;44.412;11.918;2023-07-09T11:13:43;41.60;62.30
43049;DHT22;28673;44.412;11.918;2023-07-09T11:16:15;41.70;62.30
43049;DHT22;28673;44.412;11.918;2023-07-09T11:18:54;42.00;62.00
43049;DHT22;28673;44.412;11.918;2023-07-09T11:21:20;42.20;62.20
43049;DHT22;28673;44.412;11.918;2023-07-09T11:23:52;42.20;62.90
43049;DHT22;28673;44.412;11.918;2023-07-09T11:28:55;42.40;62.40
43049;DHT22;28673;44.412;11.918;2023-07-09T11:31:24;42.40;62.00
43049;DHT22;28673;44.412;11.918;2023-07-09T11:34:19;42.60;60.90
43049;DHT22;28673;44.412;11.918;2023-07-09T11:44:49;43.50;59.10
43049;DHT22;28673;44.412;11.918;2023-07-09T11:50:50;43.70;59.70
43049;DHT22;28673;44.412;11.918;2023-07-09T11:53:41;43.90;59.70
43049;DHT22;28673;44.412;11.918;2023-07-09T11:56:09;43.90;59.90
43049;DHT22;28673;44.412;11.918;2023-07-09T11:58:35;43.90;60.00
43049;DHT22;28673;44.412;11.918;2023-07-09T12:01:01;43.80;59.10
43049;DHT22;28673;44.412;11.918;2023-07-09T12:03:30;43.70;59.70
43049;DHT22;28673;44.412;11.918;2023-07-09T12:06:32;43.80;59.80
43049;DHT22;28673;44.412;11.918;2023-07-09T12:08:59;43.70;57.90
43049;DHT22;28673;44.412;11.918;2023-07-09T12:11:29;43.50;59.30
43049;DHT22;28673;44.412;11.918;2023-07-09T12:14:05;43.20;59.00
43049;DHT22;28673;44.412;11.918;2023-07-09T12:16:35;43.00;59.00
43049;DHT22;28673;44.412;11.918;2023-07-09T12:19:01;43.10;59.10
43049;DHT22;28673;44.412;11.918;2023-07-09T12:21:29;43.20;58.80
43049;DHT22;28673;44.412;11.918;2023-07-09T12:23:55;43.40;59.00
43049;DHT22;28673;44.412;11.918;2023-07-09T12:26:22;43.40;59.00
43049;DHT22;28673;44.412;11.918;2023-07-09T12:28:56;43.30;58.70
43049;DHT22;28673;44.412;11.918;2023-07-09T12:31:30;43.10;57.50
43049;DHT22;28673;44.412;11.918;2023-07-09T12:33:58;42.90;58.70
43049;DHT22;28673;44.412;11.918;2023-07-09T12:36:28;42.80;59.30
43049;DHT22;28673;44.412;11.918;2023-07-09T12:39:02;42.70;59.00
43049;DHT22;28673;44.412;11.918;2023-07-09T12:41:36;42.70;59.80
43049;DHT22;28673;44.412;11.918;2023-07-09T12:44:03;42.70;59.20
43049;DHT22;28673;44.412;11.918;2023-07-09T12:46:30;42.80;58.60
43049;DHT22;28673;44.412;11.918;2023-07-09T12:48:56;43.00;58.80
43049;DHT22;28673;44.412;11.918;2023-07-09T12:51:25;43.10;58.40
43049;DHT22;28673;44.412;11.918;2023-07-09T12:54:20;43.30;58.50
43049;DHT22;28673;44.412;11.918;2023-07-09T12:56:53;43.20;57.70
43049;DHT22;28673;44.412;11.918;2023-07-09T12:59:35;43.10;57.40
43049;DHT22;28673;44.412;11.918;2023-07-09T13:02:14;43.20;57.30
43049;DHT22;28673;44.412;11.918;2023-07-09T13:04:40;43.30;57.60
43049;DHT22;28673;44.412;11.918;2023-07-09T13:07:30;43.60;57.70
43049;DHT22;28673;44.412;11.918;2023-07-09T13:10:05;43.80;56.70
43049;DHT22;28673;44.412;11.918;2023-07-09T13:12:32;44.10;56.80
43049;DHT22;28673;44.412;11.918;2023-07-09T13:14:59;44.30;57.20
43049;DHT22;28673;44.412;11.918;2023-07-09T13:17:29;44.30;57.10
43049;DHT22;28673;44.412;11.918;2023-07-09T13:19:56;44.40;57.00
43049;DHT22;28673;44.412;11.918;2023-07-09T13:22:23;44.50;57.10
43049;DHT22;28673;44.412;11.918;2023-07-09T13:24:50;44.60;56.50
43049;DHT22;28673;44.412;11.918;2023-07-09T13:27:16;44.50;56.40
43049;DHT22;28673;44.412;11.918;2023-07-09T13:29:43;44.30;56.20
43049;DHT22;28673;44.412;11.918;2023-07-09T13:32:10;44.00;56.40
43049;DHT22;28673;44.412;11.918;2023-07-09T13:34:37;43.90;56.40
43049;DHT22;28673;44.412;11.918;2023-07-09T13:37:08;44.00;56.50
43049;DHT22;28673;44.412;11.918;2023-07-09T13:39:34;43.80;56.30
43049;DHT22;28673;44.412;11.918;2023-07-09T13:42:01;43.80;56.40
43049;DHT22;28673;44.412;11.918;2023-07-09T13:44:29;43.70;56.90
43049;DHT22;28673;44.412;11.918;2023-07-09T13:46:57;43.80;56.60
43049;DHT22;28673;44.412;11.918;2023-07-09T13:49:25;43.80;56.50
43049;DHT22;28673;44.412;11.918;2023-07-09T13:51:53;43.80;56.60
43049;DHT22;28673;44.412;11.918;2023-07-09T13:54:31;43.90;55.80
43049;DHT22;28673;44.412;11.918;2023-07-09T13:57:05;44.10;56.20
43049;DHT22;28673;44.412;11.918;2023-07-09T13:59:32;44.20;55.40
43049;DHT22;28673;44.412;11.918;2023-07-09T14:01:59;44.30;55.80
43049;DHT22;28673;44.412;11.918;2023-07-09T14:04:26;44.30;56.50
43049;DHT22;28673;44.412;11.918;2023-07-09T14:06:53;44.40;55.90
43049;DHT22;28673;44.412;11.918;2023-07-09T14:09:19;44.40;55.50
43049;DHT22;28673;44.412;11.918;2023-07-09T14:11:55;44.50;55.70
43049;DHT22;28673;44.412;11.918;2023-07-09T14:14:24;44.60;54.60
43049;DHT22;28673;44.412;11.918;2023-07-09T14:16:51;44.70;55.00
43049;DHT22;28673;44.412;11.918;2023-07-09T14:19:20;44.90;55.60
43049;DHT22;28673;44.412;11.918;2023-07-09T14:21:49;44.90;56.40
43049;DHT22;28673;44.412;11.918;2023-07-09T14:24:23;44.80;56.70
43049;DHT22;28673;44.412;11.918;2023-07-09T14:26:51;44.70;57.40
43049;DHT22;28673;44.412;11.918;2023-07-09T14:29:17;44.50;57.60
43049;DHT22;28673;44.412;11.918;2023-07-09T14:31:44;44.40;57.20
43049;DHT22;28673;44.412;11.918;2023-07-09T14:34:29;44.30;57.30
43049;DHT22;28673;44.412;11.918;2023-07-09T14:36:59;44.40;57.30
43049;DHT22;28673;44.412;11.918;2023-07-09T14:39:29;44.50;57.80
43049;DHT22;28673;44.412;11.918;2023-07-09T14:41:55;44.40;58.40
43049;DHT22;28673;44.412;11.918;2023-07-09T14:44:24;44.20;59.20
43049;DHT22;28673;44.412;11.918;2023-07-09T14:46:51;44.20;60.10
43049;DHT22;28673;44.412;11.918;2023-07-09T14:49:18;43.80;59.40
43049;DHT22;28673;44.412;11.918;2023-07-09T14:51:45;43.60;59.90
43049;DHT22;28673;44.412;11.918;2023-07-09T14:54:28;43.40;60.00
43049;DHT22;28673;44.412;11.918;2023-07-09T14:56:56;43.30;60.30
43049;DHT22;28673;44.412;11.918;2023-07-09T14:59:23;43.20;60.30
43049;DHT22;28673;44.412;11.918;2023-07-09T15:01:49;43.10;60.20
43049;DHT22;28673;44.412;11.918;2023-07-09T15:06:52;42.70;60.40
43049;DHT22;28673;44.412;11.918;2023-07-09T15:09:26;42.60;60.40
43049;DHT22;28673;44.412;11.918;2023-07-09T15:11:57;42.30;60.50
43049;DHT22;28673;44.412;11.918;2023-07-09T15:14:25;42.20;60.70
43049;DHT22;28673;44.412;11.918;2023-07-09T15:16:53;42.20;61.10
43049;DHT22;28673;44.412;11.918;2023-07-09T15:19:21;42.10;61.30
43049;DHT22;28673;44.412;11.918;2023-07-09T15:21:48;42.00;61.10
43049;DHT22;28673;44.412;11.918;2023-07-09T15:24:31;42.00;61.50
43049;DHT22;28673;44.412;11.918;2023-07-09T15:26:58;41.90;61.60
43049;DHT22;28673;44.412;11.918;2023-07-09T15:29:27;41.90;61.80
43049;DHT22;28673;44.412;11.918;2023-07-09T15:31:54;41.80;62.30
43049;DHT22;28673;44.412;11.918;2023-07-09T15:34:20;41.80;62.50
43049;DHT22;28673;44.412;11.918;2023-07-09T15:36:48;41.80;62.70
43049;DHT22;28673;44.412;11.918;2023-07-09T15:39:16;41.80;62.40
43049;DHT22;28673;44.412;11.918;2023-07-09T15:41:42;41.80;62.30
43049;DHT22;28673;44.412;11.918;2023-07-09T15:44:12;41.80;62.10
43049;DHT22;28673;44.412;11.918;2023-07-09T15:46:52;41.70;62.10
43049;DHT22;28673;44.412;11.918;2023-07-09T15:49:22;41.60;62.30
43049;DHT22;28673;44.412;11.918;2023-07-09T15:51:48;41.50;61.90
43049;DHT22;28673;44.412;11.918;2023-07-09T15:54:17;41.40;62.10
43049;DHT22;28673;44.412;11.918;2023-07-09T15:56:43;41.20;62.20
43049;DHT22;28673;44.412;11.918;2023-07-09T15:59:30;41.10;62.30
43049;DHT22;28673;44.412;11.918;2023-07-09T16:01:58;41.00;62.30
43049;DHT22;28673;44.412;11.918;2023-07-09T16:04:25;40.80;62.10
43049;DHT22;28673;44.412;11.918;2023-07-09T16:06:51;40.60;62.30
43049;DHT22;28673;44.412;11.918;2023-07-09T16:09:17;40.50;62.40
43049;DHT22;28673;44.412;11.918;2023-07-09T16:11:49;40.40;62.70
43049;DHT22;28673;44.412;11.918;2023-07-09T16:16:45;40.10;62.20
43049;DHT22;28673;44.412;11.918;2023-07-09T16:19:19;40.00;62.40
43049;DHT22;28673;44.412;11.918;2023-07-09T16:21:47;39.90;62.70
43049;DHT22;28673;44.412;11.918;2023-07-09T16:24:18;39.90;62.40
43049;DHT22;28673;44.412;11.918;2023-07-09T16:26:44;39.70;62.60